Wednesday, November 22, 2017, 8:57 AM GMT
Back to Local

CYZV, Sept-Iles, Que.

Location: , , Canada Lat: 50.217
Local Time: 8:57 AM GMT ( 8:57 GMT) Lon: -66.267
Time Zone: GMT Elev: 180 ft

Show me the last for .
Show Coded

Time T Td Feel RH Dir Speed Gust Alt SLP Vis Weather Sky Remarks
2017-11-22 08:00 27 21 17 79 70° 9 - 29.92 29.93 15 OVC050 None
2017-11-22 07:00 25 19 16 79 60° 8 - 29.91 29.92 15 OVC050 None
2017-11-22 06:00 25 19 15 79 60° 10 - 29.90 29.91 15 OVC050 None
2017-11-22 05:00 23 18 13 79 50° 9 - 29.90 29.92 15 FEW020 BKN050 OVC240 None
2017-11-22 04:00 21 16 10 79 50° 10 - 29.90 29.92 15 FEW020 SCT050 BKN240 None
2017-11-22 03:00 19 16 9 85 40° 8 - 29.91 29.92 15 FEW020 BKN240 None
2017-11-22 02:00 21 14 10 73 50° 10 - 29.91 29.93 15 FEW030 SCT160 BKN240 None
2017-11-22 01:00 21 14 13 73 60° 7 - 29.91 29.93 15 SCT030 BKN160 BKN200 None
2017-11-22 00:00 21 14 14 73 60° 6 - 29.91 29.93 15 OVC030 None
2017-11-21 23:00 21 14 14 73 50° 6 - 29.90 29.92 15 OVC030 None
2017-11-21 22:00 21 12 15 67 70° 5 - 29.90 29.92 15 OVC030 None
2017-11-21 21:00 21 12 - 67 Variable 2 - 29.90 29.92 15 BKN030 OVC100 None
2017-11-21 20:00 21 12 - 67 Variable 2 - 29.90 29.91 30 BKN035 OVC150 None
2017-11-21 19:00 21 10 16 62 230° 3 - 29.89 29.91 30 FEW030 BKN052 BKN140 None
2017-11-21 18:00 21 10 12 62 250° 8 - 29.89 29.91 30 FEW030 BKN150 BKN220 None
2017-11-21 17:00 21 9 14 57 290° 6 - 29.87 29.89 30 FEW030 FEW150 SCT200 SCT250 None
2017-11-21 16:00 21 9 9 57 250° 12 - 29.86 29.88 30 FEW030 BKN200 None
2017-11-21 15:00 19 7 7 57 300° 13 - 29.86 29.88 30 FEW030 SCT100 BKN200 None
2017-11-21 14:00 19 7 8 57 310° 10 - 29.83 29.85 30 FEW010 FEW030 FEW100 SCT220 None
2017-11-21 13:00 19 7 5 57 280° 15 - 29.83 29.84 30 FEW030 SCT100 SCT250 None
2017-11-21 12:00 18 7 5 61 280° 12 - 29.80 29.81 30 SCT030 BKN100 None
2017-11-21 11:31 19 7 4 57 290° 12 20 29.78 29.80 30 SCT030 BKN080 None
2017-11-21 11:00 19 7 4 57 290° 17 - 29.78 29.79 15 -SN BKN030 BKN150 None
2017-11-21 10:00 19 9 4 62 280° 10 20 29.75 29.77 15 -SN BKN030 BKN150 None
2017-11-21 09:41 19 9 3 62 280° 10 22 29.74 29.76 15 -SN BKN030 BKN150 None
2017-11-21 09:00 19 9 4 62 280° 13 18 29.73 29.74 15 SCT030 BKN150 None

Support USWX by starting your Amazon purchase here.